Skip Navigation Links
NOAA logo - Click to go to the NOAA homepage
NOAA's National Weather Service
Alaska Aviation Weather Unit
  NWS logo - Click to go to the NWS homepage
Left Navbar Graphic     21 AKDT = 05 GMT

   
NOAA is celebrating 200 years of science, service, and stewardship. Visit the NOAA 200th celebration Web site to learn more.
USA.gov is the U.S. Government's official Web portal to all Federal, state and local government Web resources and services.
Facebook
NWS on Facebook

Important Change Regarding the AAWU Web Presence

 

Over the last several months, the AAWU has been working to navigate its webpages to a nationally supported server. Security, as well as other needs, have necessitated the change.  In the process, we have made an effort to enhance the functionality of our website, as well as some of our products. As of June 27, 2017, aawu.arh.noaa.gov will be discontinued. The new AAWU web address is weather.gov/aawu. It is now live and will run in-parallel with the old site until it is discontinued. Please send any feedback or questions regarding the new webpages to nws.ar.aawu.webauthors@noaa.gov.  Thank you for your patience during this time of transition.
AAWU Home :: Display TAF Add Bookmark
TAF CYXJ 250038Z 2501/2513 14006KT P6SM FEW080 BKN220
    FM250500 12007KT P6SM SCT080 BKN150 OVC200
    FM250900 12007KT P6SM SCT080
    RMK NXT FCST BY 250700Z=

METAR CYXJ 242300Z 11005KT 060V220 15SM FEW060 BKN230 22/07 A3024 RMK CU1CI5 SLP253 DENSITY ALT 3300FT= METAR CYXJ 250000Z 15004KT 100V170 15SM FEW064 FEW180 BKN230 22/06 A3022 RMK CU1AC1CI4 SLP246 DENSITY ALT 3300FT= METAR CYXJ 250100Z 11009G15KT 15SM FEW060 SCT180 BKN200 22/07 A3020 RMK CU1AC2CC4 SLP237 DENSITY ALT 3400FT= METAR CYXJ 250200Z 12009G16KT 15SM FEW060 FEW180 BKN210 20/08 A3018 RMK CU1AC2CI5 CU TR SLP230 DENSITY ALT 3200FT= METAR CYXJ 250300Z 12009KT 15SM FEW060 BKN180 OVC210 18/09 A3017 RMK CU1AC6CI2 CU TR SLP227 DENSITY ALT 3000FT= METAR CYXJ 250400Z 12008KT 15SM BKN160 OVC210 17/08 A3015 RMK AC6CI2 SLP222 DENSITY ALT 2800FT= METAR CYXJ 250500Z 14010G16KT 15SM BKN130 BKN210 17/08 A3015 RMK AC6CI1 SLP218 DENSITY ALT 2800FT=
 Alaska TAF Map

NOAA's National Weather Service
Alaska Aviation Weather Unit
6930 Sand Lake Road
Anchorage, AK 99502-1845
Disclaimer
Credits
Glossary
Privacy Policy
About Us
Career Opportunities
Contact AAWU Internet Services Site last modified: April, 17th 2012